createdAt,value
2018-07-07T00:00:58.307Z,1015.61
2018-07-07T00:01:58.299Z,1015.62
2018-07-07T00:02:58.308Z,1015.62
2018-07-07T00:03:58.274Z,1015.63
2018-07-07T00:04:58.263Z,1015.62
2018-07-07T00:05:58.259Z,1015.61
2018-07-07T00:06:58.241Z,1015.63
2018-07-07T00:07:58.254Z,1015.64
2018-07-07T00:08:58.219Z,1015.62
2018-07-07T00:09:58.210Z,1015.60
2018-07-07T00:10:58.198Z,1015.62
2018-07-07T00:11:58.187Z,1015.59
2018-07-07T00:12:58.197Z,1015.65
2018-07-07T00:13:58.164Z,1015.64
2018-07-07T00:14:58.154Z,1015.64
2018-07-07T00:15:58.143Z,1015.62
2018-07-07T00:16:58.131Z,1015.64
2018-07-07T00:17:58.143Z,1015.64
2018-07-07T00:18:58.112Z,1015.60
2018-07-07T00:19:58.101Z,1015.66
2018-07-07T00:20:58.092Z,1015.62
2018-07-07T00:21:58.075Z,1015.60
2018-07-07T00:22:58.095Z,1015.61
2018-07-07T00:23:58.054Z,1015.62
2018-07-07T00:24:58.043Z,1015.61
2018-07-07T00:25:58.032Z,1015.61
2018-07-07T00:26:58.023Z,1015.62
2018-07-07T00:27:58.033Z,1015.60
2018-07-07T00:28:57.998Z,1015.60
2018-07-07T00:29:57.988Z,1015.61
2018-07-07T00:30:57.977Z,1015.62
2018-07-07T00:31:57.966Z,1015.62
2018-07-07T00:32:57.979Z,1015.60
2018-07-07T00:33:57.944Z,1015.63
2018-07-07T00:34:57.933Z,1015.67
2018-07-07T00:35:57.921Z,1015.65
2018-07-07T00:36:57.911Z,1015.63
2018-07-07T00:37:57.924Z,1015.63
2018-07-07T00:38:57.888Z,1015.63
2018-07-07T00:39:57.877Z,1015.64
2018-07-07T00:40:57.868Z,1015.64
2018-07-07T00:41:57.856Z,1015.61
2018-07-07T00:42:57.867Z,1015.66
2018-07-07T00:43:57.833Z,1015.63
2018-07-07T00:44:57.825Z,1015.65
2018-07-07T00:45:57.813Z,1015.67
2018-07-07T00:46:57.799Z,1015.66
2018-07-07T00:47:57.814Z,1015.66
2018-07-07T00:48:57.778Z,1015.67
2018-07-07T00:49:57.767Z,1015.66
2018-07-07T00:50:57.757Z,1015.69
2018-07-07T00:51:57.746Z,1015.70
2018-07-07T00:52:57.765Z,1015.69
2018-07-07T00:53:57.725Z,1015.67
2018-07-07T00:54:57.712Z,1015.67
2018-07-07T00:55:57.701Z,1015.67
2018-07-07T00:56:57.690Z,1015.65
2018-07-07T00:57:57.702Z,1015.63
2018-07-07T00:58:57.668Z,1015.66
2018-07-07T00:59:57.657Z,1015.65
2018-07-07T01:00:57.646Z,1015.62
2018-07-07T01:01:57.638Z,1015.62
2018-07-07T01:02:57.649Z,1015.60
2018-07-07T01:03:57.613Z,1015.61
2018-07-07T01:04:57.602Z,1015.56
2018-07-07T01:05:57.592Z,1015.58
2018-07-07T01:06:57.582Z,1015.59
2018-07-07T01:07:57.592Z,1015.59
2018-07-07T01:08:57.561Z,1015.59
2018-07-07T01:09:57.547Z,1015.61
2018-07-07T01:10:57.537Z,1015.61
2018-07-07T01:11:57.525Z,1015.59
2018-07-07T01:12:57.540Z,1015.59
2018-07-07T01:13:57.503Z,1015.62
2018-07-07T01:14:57.501Z,1015.57
2018-07-07T01:15:57.484Z,1015.59
2018-07-07T01:16:57.470Z,1015.59
2018-07-07T01:17:57.484Z,1015.58
2018-07-07T01:18:57.450Z,1015.60
2018-07-07T01:19:57.437Z,1015.61
2018-07-07T01:20:57.428Z,1015.61
2018-07-07T01:21:57.415Z,1015.60
2018-07-07T01:22:57.407Z,1015.57
2018-07-07T01:23:57.417Z,1015.57
2018-07-07T01:24:57.382Z,1015.59
2018-07-07T01:25:57.371Z,1015.60
2018-07-07T01:26:57.360Z,1015.62
2018-07-07T01:27:57.350Z,1015.62
2018-07-07T01:28:57.363Z,1015.59
2018-07-07T01:29:57.327Z,1015.59
2018-07-07T01:30:57.316Z,1015.57
2018-07-07T01:31:57.305Z,1015.59
2018-07-07T01:32:57.295Z,1015.57
2018-07-07T01:33:57.309Z,1015.66
2018-07-07T01:34:57.273Z,1015.59
2018-07-07T01:35:57.261Z,1015.60
2018-07-07T01:36:57.252Z,1015.64
2018-07-07T01:37:57.242Z,1015.61
2018-07-07T01:38:57.252Z,1015.66
2018-07-07T01:39:57.218Z,1015.62
2018-07-07T01:40:57.208Z,1015.67
2018-07-07T01:41:57.197Z,1015.67
2018-07-07T01:42:57.186Z,1015.65
2018-07-07T01:43:57.197Z,1015.65
2018-07-07T01:44:57.165Z,1015.65
2018-07-07T01:45:57.151Z,1015.66
2018-07-07T01:46:57.140Z,1015.68
2018-07-07T01:47:57.130Z,1015.70
2018-07-07T01:48:57.141Z,1015.70
2018-07-07T01:49:57.109Z,1015.69
2018-07-07T01:50:57.097Z,1015.70
2018-07-07T01:51:57.087Z,1015.70
2018-07-07T01:52:57.074Z,1015.72
2018-07-07T01:53:57.089Z,1015.69
2018-07-07T01:54:57.053Z,1015.67
2018-07-07T01:55:57.042Z,1015.70
2018-07-07T01:56:57.030Z,1015.67
2018-07-07T01:57:57.019Z,1015.72
2018-07-07T01:58:57.033Z,1015.69
2018-07-07T01:59:56.997Z,1015.69
2018-07-07T02:00:56.986Z,1015.68
2018-07-07T02:01:56.976Z,1015.69
2018-07-07T02:02:56.965Z,1015.66
2018-07-07T02:03:56.978Z,1015.65
2018-07-07T02:04:56.942Z,1015.63
2018-07-07T02:05:56.932Z,1015.65
2018-07-07T02:06:56.920Z,1015.60
2018-07-07T02:07:56.912Z,1015.59
2018-07-07T02:08:56.923Z,1015.60
2018-07-07T02:09:56.887Z,1015.61
2018-07-07T02:10:56.879Z,1015.60
2018-07-07T02:11:56.868Z,1015.61
2018-07-07T02:12:56.856Z,1015.57
2018-07-07T02:13:56.868Z,1015.57
2018-07-07T02:14:56.832Z,1015.57
2018-07-07T02:15:56.823Z,1015.59
2018-07-07T02:16:56.811Z,1015.60
2018-07-07T02:17:56.799Z,1015.56
2018-07-07T02:18:56.813Z,1015.56
2018-07-07T02:19:56.777Z,1015.54
2018-07-07T02:20:56.767Z,1015.54
2018-07-07T02:21:56.755Z,1015.58
2018-07-07T02:22:56.744Z,1015.60
2018-07-07T02:23:56.762Z,1015.63
2018-07-07T02:24:56.724Z,1015.63
2018-07-07T02:25:56.723Z,1015.64
2018-07-07T02:26:56.701Z,1015.68
2018-07-07T02:27:56.689Z,1015.65
2018-07-07T02:28:56.705Z,1015.61
2018-07-07T02:29:56.669Z,1015.66
2018-07-07T02:30:56.661Z,1015.64
2018-07-07T02:31:56.649Z,1015.62
2018-07-07T02:32:56.635Z,1015.65
2018-07-07T02:33:56.648Z,1015.63
2018-07-07T02:34:56.612Z,1015.62
2018-07-07T02:35:56.601Z,1015.62
2018-07-07T02:36:56.590Z,1015.66
2018-07-07T02:37:56.582Z,1015.62
2018-07-07T02:38:56.593Z,1015.66
2018-07-07T02:39:56.559Z,1015.61
2018-07-07T02:40:56.549Z,1015.67
2018-07-07T02:41:56.540Z,1015.61
2018-07-07T02:42:56.525Z,1015.67
2018-07-07T02:43:56.538Z,1015.60
2018-07-07T02:44:56.502Z,1015.66
2018-07-07T02:45:56.492Z,1015.66
2018-07-07T02:46:56.483Z,1015.71
2018-07-07T02:47:56.470Z,1015.71
2018-07-07T02:48:56.485Z,1015.72
2018-07-07T02:49:56.448Z,1015.72
2018-07-07T02:50:56.437Z,1015.73
2018-07-07T02:51:56.424Z,1015.71
2018-07-07T02:52:56.414Z,1015.71
2018-07-07T02:53:56.426Z,1015.67
2018-07-07T02:54:56.392Z,1015.73
2018-07-07T02:55:56.380Z,1015.68
2018-07-07T02:56:56.371Z,1015.71
2018-07-07T02:57:56.359Z,1015.68
2018-07-07T02:58:56.372Z,1015.68
2018-07-07T02:59:56.338Z,1015.69
2018-07-07T03:00:56.328Z,1015.71
2018-07-07T03:01:56.326Z,1015.68
2018-07-07T03:02:56.304Z,1015.70
2018-07-07T03:03:56.314Z,1015.73
2018-07-07T03:04:56.282Z,1015.70
2018-07-07T03:05:56.273Z,1015.71
2018-07-07T03:06:56.260Z,1015.72
2018-07-07T03:07:56.249Z,1015.70
2018-07-07T03:08:56.262Z,1015.65
2018-07-07T03:09:56.226Z,1015.69
2018-07-07T03:10:56.216Z,1015.65
2018-07-07T03:11:56.209Z,1015.67
2018-07-07T03:12:56.194Z,1015.72
2018-07-07T03:13:56.185Z,1015.67
2018-07-07T03:14:56.196Z,1015.71
2018-07-07T03:15:56.162Z,1015.69
2018-07-07T03:16:56.150Z,1015.67
2018-07-07T03:17:56.140Z,1015.71
2018-07-07T03:18:56.132Z,1015.70
2018-07-07T03:19:56.143Z,1015.72
2018-07-07T03:20:56.106Z,1015.77
2018-07-07T03:21:56.096Z,1015.75
2018-07-07T03:22:56.085Z,1015.71
2018-07-07T03:23:56.075Z,1015.74
2018-07-07T03:24:56.086Z,1015.72
2018-07-07T03:25:56.051Z,1015.77
2018-07-07T03:26:56.041Z,1015.80
2018-07-07T03:27:56.030Z,1015.82
2018-07-07T03:28:56.018Z,1015.89
2018-07-07T03:29:56.030Z,1015.86
2018-07-07T03:30:55.995Z,1015.87
2018-07-07T03:31:55.985Z,1015.88
2018-07-07T03:32:55.977Z,1015.87
2018-07-07T03:33:55.966Z,1015.91
2018-07-07T03:34:55.974Z,1015.91
2018-07-07T03:35:55.941Z,1015.91
2018-07-07T03:36:55.932Z,1015.95
2018-07-07T03:37:55.923Z,1015.94
2018-07-07T03:38:55.907Z,1015.94
2018-07-07T03:39:55.920Z,1015.97
2018-07-07T03:40:55.884Z,1016.01
2018-07-07T03:41:55.874Z,1016.00
2018-07-07T03:42:55.862Z,1016.02
2018-07-07T03:43:55.852Z,1016.01
2018-07-07T03:44:55.864Z,1016.03
2018-07-07T03:45:55.831Z,1016.02
2018-07-07T03:46:55.820Z,1016.04
2018-07-07T03:47:55.809Z,1016.02
2018-07-07T03:48:55.797Z,1016.04
2018-07-07T03:49:55.810Z,1016.02
2018-07-07T03:50:55.777Z,1016.06
2018-07-07T03:51:55.763Z,1016.03
2018-07-07T03:52:55.754Z,1016.05
2018-07-07T03:53:55.742Z,1016.10
2018-07-07T03:54:55.757Z,1016.09
2018-07-07T03:55:55.722Z,1016.06
2018-07-07T03:56:55.709Z,1016.05
2018-07-07T03:57:55.698Z,1016.12
2018-07-07T03:58:55.799Z,1016.10
2018-07-07T03:59:55.699Z,1016.10
2018-07-07T04:00:55.665Z,1016.09
2018-07-07T04:01:55.653Z,1016.11
2018-07-07T04:02:55.695Z,1016.11
2018-07-07T04:03:55.635Z,1016.09
2018-07-07T04:04:55.643Z,1016.14
2018-07-07T04:05:55.609Z,1016.15
2018-07-07T04:06:55.598Z,1016.11
2018-07-07T04:07:55.588Z,1016.16
2018-07-07T04:08:55.578Z,1016.13
2018-07-07T04:09:55.590Z,1016.13
2018-07-07T04:10:55.555Z,1016.15
2018-07-07T04:11:55.592Z,1016.18
2018-07-07T04:12:55.533Z,1016.15
2018-07-07T04:13:55.523Z,1016.14
2018-07-07T04:14:55.534Z,1016.16
2018-07-07T04:15:55.500Z,1016.18
2018-07-07T04:16:55.489Z,1016.18
2018-07-07T04:17:55.479Z,1016.18
2018-07-07T04:18:55.475Z,1016.16
2018-07-07T04:19:55.481Z,1016.21
2018-07-07T04:20:55.445Z,1016.24
2018-07-07T04:21:55.433Z,1016.18
2018-07-07T04:22:55.430Z,1016.18
2018-07-07T04:23:55.412Z,1016.20
2018-07-07T04:24:55.424Z,1016.21
2018-07-07T04:25:55.391Z,1016.20
2018-07-07T04:26:55.380Z,1016.23
2018-07-07T04:27:55.368Z,1016.25
2018-07-07T04:28:55.358Z,1016.25
2018-07-07T04:29:55.368Z,1016.25
2018-07-07T04:30:55.334Z,1016.22
2018-07-07T04:31:55.324Z,1016.25
2018-07-07T04:32:55.312Z,1016.25
2018-07-07T04:33:55.302Z,1016.21
2018-07-07T04:34:55.314Z,1016.20
2018-07-07T04:35:55.283Z,1016.24
2018-07-07T04:36:55.269Z,1016.23
2018-07-07T04:37:55.258Z,1016.23
2018-07-07T04:38:55.247Z,1016.20
2018-07-07T04:39:55.258Z,1016.21
2018-07-07T04:40:55.224Z,1016.22
2018-07-07T04:41:55.213Z,1016.22
2018-07-07T04:42:55.202Z,1016.21
2018-07-07T04:43:55.191Z,1016.18
2018-07-07T04:44:55.182Z,1016.20
2018-07-07T04:45:55.215Z,1016.21
2018-07-07T04:46:55.159Z,1016.22
2018-07-07T04:47:55.148Z,1016.21
2018-07-07T04:48:55.136Z,1016.29
2018-07-07T04:49:55.149Z,1016.27
2018-07-07T04:50:55.114Z,1016.27
2018-07-07T04:51:55.104Z,1016.28
2018-07-07T04:52:55.091Z,1016.27
2018-07-07T04:53:55.081Z,1016.28
2018-07-07T04:54:55.071Z,1016.33
2018-07-07T04:55:55.083Z,1016.31
2018-07-07T04:56:55.048Z,1016.27
2018-07-07T04:57:55.038Z,1016.29
2018-07-07T04:58:55.025Z,1016.31
2018-07-07T04:59:55.017Z,1016.34
2018-07-07T05:00:55.027Z,1016.36
2018-07-07T05:01:54.993Z,1016.35
2018-07-07T05:02:54.981Z,1016.34
2018-07-07T05:03:54.970Z,1016.36
2018-07-07T05:04:54.960Z,1016.36
2018-07-07T05:05:54.972Z,1016.36
2018-07-07T05:06:54.937Z,1016.38
2018-07-07T05:07:54.931Z,1016.39
2018-07-07T05:08:54.915Z,1016.40
2018-07-07T05:09:54.904Z,1016.44
2018-07-07T05:10:54.945Z,1016.41
2018-07-07T05:11:54.882Z,1016.42
2018-07-07T05:12:54.871Z,1016.42
2018-07-07T05:13:54.860Z,1016.45
2018-07-07T05:14:54.850Z,1016.43
2018-07-07T05:15:54.863Z,1016.47
2018-07-07T05:16:54.831Z,1016.48
2018-07-07T05:17:54.817Z,1016.46
2018-07-07T05:18:54.806Z,1016.46
2018-07-07T05:19:54.794Z,1016.45
2018-07-07T05:20:54.807Z,1016.44
2018-07-07T05:21:54.773Z,1016.45
2018-07-07T05:22:54.763Z,1016.45
2018-07-07T05:23:54.751Z,1016.49
2018-07-07T05:24:54.742Z,1016.47
2018-07-07T05:25:54.754Z,1016.46
2018-07-07T05:26:54.717Z,1016.50
2018-07-07T05:27:54.708Z,1016.49
2018-07-07T05:28:54.700Z,1016.47
2018-07-07T05:29:54.684Z,1016.52
2018-07-07T05:30:54.696Z,1016.49
2018-07-07T05:31:54.757Z,1016.53
2018-07-07T05:32:54.650Z,1016.51
2018-07-07T05:33:54.642Z,1016.53
2018-07-07T05:34:54.630Z,1016.50
2018-07-07T05:35:54.663Z,1016.48
2018-07-07T05:36:54.607Z,1016.49
2018-07-07T05:37:54.596Z,1016.50
2018-07-07T05:38:54.584Z,1016.54
2018-07-07T05:39:54.574Z,1016.56
2018-07-07T05:40:54.586Z,1016.57
2018-07-07T05:41:54.552Z,1016.57
2018-07-07T05:42:54.542Z,1016.53
2018-07-07T05:43:54.532Z,1016.55
2018-07-07T05:44:54.519Z,1016.51
2018-07-07T05:45:54.531Z,1016.51
2018-07-07T05:46:54.496Z,1016.46
2018-07-07T05:47:54.490Z,1016.48
2018-07-07T05:48:54.476Z,1016.52
2018-07-07T05:49:54.483Z,1016.48
2018-07-07T05:50:54.476Z,1016.52
2018-07-07T05:51:54.441Z,1016.50
2018-07-07T05:52:54.433Z,1016.46
2018-07-07T05:53:54.420Z,1016.46
2018-07-07T05:54:54.409Z,1016.45
2018-07-07T05:55:55.349Z,1016.48
2018-07-07T05:56:54.386Z,1016.48
2018-07-07T05:57:54.376Z,1016.48
2018-07-07T05:58:54.366Z,1016.53
2018-07-07T05:59:54.354Z,1016.55
2018-07-07T06:00:54.365Z,1016.54
2018-07-07T06:01:54.331Z,1016.54
2018-07-07T06:02:54.321Z,1016.59
2018-07-07T06:03:54.309Z,1016.60
2018-07-07T06:04:54.298Z,1016.56
2018-07-07T06:05:54.310Z,1016.62
2018-07-07T06:06:54.277Z,1016.60
2018-07-07T06:07:54.265Z,1016.60
2018-07-07T06:08:54.254Z,1016.60
2018-07-07T06:09:54.244Z,1016.61
2018-07-07T06:10:54.255Z,1016.62
2018-07-07T06:11:54.221Z,1016.62
2018-07-07T06:12:54.214Z,1016.58
2018-07-07T06:13:54.208Z,1016.60
2018-07-07T06:14:54.196Z,1016.61
2018-07-07T06:15:54.206Z,1016.60
2018-07-07T06:16:54.172Z,1016.63
2018-07-07T06:17:54.156Z,1016.61
2018-07-07T06:18:54.167Z,1016.56
2018-07-07T06:19:54.139Z,1016.59
2018-07-07T06:20:54.147Z,1016.60
2018-07-07T06:21:54.120Z,1016.53
2018-07-07T06:22:54.105Z,1016.54
2018-07-07T06:23:54.095Z,1016.56
2018-07-07T06:24:54.081Z,1016.55
2018-07-07T06:25:54.109Z,1016.57
2018-07-07T06:26:54.156Z,1016.56
2018-07-07T06:27:54.052Z,1016.59
2018-07-07T06:28:54.037Z,1016.60
2018-07-07T06:29:54.035Z,1016.64
2018-07-07T06:30:54.015Z,1016.59
2018-07-07T06:31:54.034Z,1016.64
2018-07-07T06:32:53.994Z,1016.63
2018-07-07T06:33:53.980Z,1016.62
2018-07-07T06:34:53.970Z,1016.62
2018-07-07T06:35:53.964Z,1016.62
2018-07-07T06:36:53.989Z,1016.68
2018-07-07T06:37:53.940Z,1016.68
2018-07-07T06:38:53.933Z,1016.68
2018-07-07T06:39:53.917Z,1016.71
2018-07-07T06:40:53.905Z,1016.73
2018-07-07T06:41:53.916Z,1016.74
2018-07-07T06:42:53.888Z,1016.73
2018-07-07T06:43:53.875Z,1016.79
2018-07-07T06:44:53.869Z,1016.77
2018-07-07T06:45:53.852Z,1016.79
2018-07-07T06:46:53.861Z,1016.82
2018-07-07T06:47:53.831Z,1016.83
2018-07-07T06:48:53.815Z,1016.80
2018-07-07T06:49:53.806Z,1016.80
2018-07-07T06:50:53.803Z,1016.79
2018-07-07T06:51:53.807Z,1016.84
2018-07-07T06:52:53.775Z,1016.84
2018-07-07T06:53:53.860Z,1016.80
2018-07-07T06:54:53.752Z,1016.84
2018-07-07T06:55:53.739Z,1016.79
2018-07-07T06:56:55.565Z,1016.77
2018-07-07T06:57:53.725Z,1016.80
2018-07-07T06:58:53.719Z,1016.75
2018-07-07T06:59:53.755Z,1016.78
2018-07-07T07:00:53.692Z,1016.82
2018-07-07T07:01:53.696Z,1016.78
2018-07-07T07:02:53.663Z,1016.80
2018-07-07T07:03:53.652Z,1016.79
2018-07-07T07:04:53.642Z,1016.79
2018-07-07T07:05:53.634Z,1016.79
2018-07-07T07:06:53.646Z,1016.76
2018-07-07T07:07:53.607Z,1016.78
2018-07-07T07:08:53.595Z,1016.79
2018-07-07T07:09:53.584Z,1016.75
2018-07-07T07:10:53.574Z,1016.80
2018-07-07T07:11:53.606Z,1016.79
2018-07-07T07:12:53.554Z,1016.82
2018-07-07T07:13:53.545Z,1016.83
2018-07-07T07:14:53.535Z,1016.87
2018-07-07T07:15:53.522Z,1016.81
2018-07-07T07:16:53.533Z,1016.83
2018-07-07T07:17:53.500Z,1016.86
2018-07-07T07:18:53.484Z,1016.81
2018-07-07T07:19:53.486Z,1016.87
2018-07-07T07:20:53.462Z,1016.88
2018-07-07T07:21:53.480Z,1016.86
2018-07-07T07:22:53.448Z,1016.80
2018-07-07T07:23:53.433Z,1016.83
2018-07-07T07:24:53.419Z,1016.83
2018-07-07T07:25:53.413Z,1016.78
2018-07-07T07:26:53.420Z,1016.82
2018-07-07T07:27:53.385Z,1016.77
2018-07-07T07:28:53.375Z,1016.84
2018-07-07T07:29:53.365Z,1016.83
2018-07-07T07:30:53.373Z,1016.88
2018-07-07T07:31:53.373Z,1016.85
2018-07-07T07:32:53.339Z,1016.85
2018-07-07T07:33:53.320Z,1016.87
2018-07-07T07:34:53.311Z,1016.88
2018-07-07T07:35:53.302Z,1016.86
2018-07-07T07:36:53.314Z,1016.83
2018-07-07T07:37:53.275Z,1016.85
2018-07-07T07:38:53.266Z,1016.86
2018-07-07T07:39:53.253Z,1016.85
2018-07-07T07:40:53.241Z,1016.85
2018-07-07T07:41:53.256Z,1016.84
2018-07-07T07:42:53.220Z,1016.86
2018-07-07T07:43:53.210Z,1016.83
2018-07-07T07:44:53.196Z,1016.85
2018-07-07T07:45:53.189Z,1016.83
2018-07-07T07:46:53.206Z,1016.88
2018-07-07T07:47:53.170Z,1016.86
2018-07-07T07:48:53.159Z,1016.86
2018-07-07T07:49:53.196Z,1016.88
2018-07-07T07:50:53.141Z,1016.83
2018-07-07T07:51:53.145Z,1016.84
2018-07-07T07:52:53.190Z,1016.87
2018-07-07T07:53:53.100Z,1016.86
2018-07-07T07:54:53.090Z,1016.89
2018-07-07T07:55:53.106Z,1016.85
2018-07-07T07:56:53.090Z,1016.85
2018-07-07T07:57:53.096Z,1016.86
2018-07-07T07:58:53.073Z,1016.86
2018-07-07T07:59:53.032Z,1016.84
2018-07-07T08:00:53.035Z,1016.84
2018-07-07T08:01:53.032Z,1016.86
2018-07-07T08:02:53.000Z,1016.87
2018-07-07T08:03:52.988Z,1016.85
2018-07-07T08:04:53.029Z,1016.86
2018-07-07T08:05:52.967Z,1016.85
2018-07-07T08:06:52.996Z,1016.85
2018-07-07T08:07:52.950Z,1016.88
2018-07-07T08:08:52.968Z,1016.86
2018-07-07T08:09:52.921Z,1016.85
2018-07-07T08:10:52.917Z,1016.85
2018-07-07T08:11:52.921Z,1016.85
2018-07-07T08:12:52.892Z,1016.86
2018-07-07T08:13:52.882Z,1016.83
2018-07-07T08:14:52.872Z,1016.82
2018-07-07T08:15:52.859Z,1016.86
2018-07-07T08:16:52.861Z,1016.85
2018-07-07T08:17:52.855Z,1016.83
2018-07-07T08:18:52.830Z,1016.85
2018-07-07T08:19:52.808Z,1016.85
2018-07-07T08:20:52.802Z,1016.91
2018-07-07T08:21:52.790Z,1016.88
2018-07-07T08:22:52.841Z,1016.90
2018-07-07T08:23:52.766Z,1016.90
2018-07-07T08:24:52.753Z,1016.93
2018-07-07T08:25:52.757Z,1016.90
2018-07-07T08:26:52.736Z,1016.91
2018-07-07T08:27:52.749Z,1016.94
2018-07-07T08:28:52.708Z,1016.94
2018-07-07T08:29:52.698Z,1016.96
2018-07-07T08:30:52.688Z,1016.95
2018-07-07T08:31:52.679Z,1016.91
2018-07-07T08:32:52.693Z,1016.89
2018-07-07T08:33:52.657Z,1016.94
2018-07-07T08:34:52.643Z,1016.94
2018-07-07T08:35:52.634Z,1016.94
2018-07-07T08:36:52.632Z,1016.98
2018-07-07T08:37:52.636Z,1016.98
2018-07-07T08:38:52.606Z,1016.98
2018-07-07T08:39:52.588Z,1016.99
2018-07-07T08:40:52.577Z,1016.98
2018-07-07T08:41:52.682Z,1016.94
2018-07-07T08:42:52.581Z,1016.97
2018-07-07T08:43:52.553Z,1016.96
2018-07-07T08:44:52.537Z,1016.96
2018-07-07T08:45:52.528Z,1016.95
2018-07-07T08:46:52.519Z,1016.94
2018-07-07T08:47:52.528Z,1016.94
2018-07-07T08:48:52.498Z,1016.92
2018-07-07T08:49:52.483Z,1016.95
2018-07-07T08:50:52.479Z,1016.96
2018-07-07T08:51:52.457Z,1016.97
2018-07-07T08:52:52.467Z,1017.02
2018-07-07T08:53:52.443Z,1017.04
2018-07-07T08:54:52.423Z,1017.03
2018-07-07T08:55:52.412Z,1016.99
2018-07-07T08:56:52.399Z,1016.99
2018-07-07T08:57:52.418Z,1016.98
2018-07-07T08:58:52.444Z,1016.99
2018-07-07T08:59:52.367Z,1017.03
2018-07-07T09:00:52.357Z,1016.95
2018-07-07T09:01:52.348Z,1016.97
2018-07-07T09:02:52.356Z,1016.98
2018-07-07T09:03:52.321Z,1017.00
2018-07-07T09:04:52.315Z,1016.94
2018-07-07T09:05:52.299Z,1016.95
2018-07-07T09:06:52.294Z,1016.93
2018-07-07T09:07:52.300Z,1016.90
2018-07-07T09:08:52.266Z,1016.91
2018-07-07T09:09:52.258Z,1016.88
2018-07-07T09:10:52.244Z,1016.92
2018-07-07T09:11:52.234Z,1016.88
2018-07-07T09:12:52.249Z,1016.92
2018-07-07T09:13:52.213Z,1016.91
2018-07-07T09:14:52.218Z,1016.88
2018-07-07T09:15:52.197Z,1016.90
2018-07-07T09:16:52.183Z,1016.89
2018-07-07T09:17:52.193Z,1016.88
2018-07-07T09:18:52.170Z,1016.92
2018-07-07T09:19:52.185Z,1016.89
2018-07-07T09:20:52.136Z,1016.90
2018-07-07T09:21:52.122Z,1016.89
2018-07-07T09:22:52.135Z,1016.89
2018-07-07T09:23:52.101Z,1016.87
2018-07-07T09:24:52.095Z,1016.84
2018-07-07T09:25:52.081Z,1016.81
2018-07-07T09:26:52.082Z,1016.78
2018-07-07T09:27:52.082Z,1016.79
2018-07-07T09:28:52.045Z,1016.76
2018-07-07T09:29:52.036Z,1016.75
2018-07-07T09:30:52.088Z,1016.79
2018-07-07T09:31:52.018Z,1016.75
2018-07-07T09:32:52.042Z,1016.72
2018-07-07T09:33:51.989Z,1016.73
2018-07-07T09:34:51.977Z,1016.74
2018-07-07T09:35:51.970Z,1016.76
2018-07-07T09:36:51.959Z,1016.76
2018-07-07T09:37:51.967Z,1016.79
2018-07-07T09:38:52.022Z,1016.78
2018-07-07T09:39:51.923Z,1016.75
2018-07-07T09:40:51.911Z,1016.74
2018-07-07T09:41:51.902Z,1016.78
2018-07-07T09:42:51.915Z,1016.77
2018-07-07T09:43:51.878Z,1016.72
2018-07-07T09:44:51.873Z,1016.76
2018-07-07T09:45:51.872Z,1016.71
2018-07-07T09:46:51.846Z,1016.71
2018-07-07T09:47:51.858Z,1016.71
2018-07-07T09:48:51.822Z,1016.70
2018-07-07T09:49:51.812Z,1016.73
2018-07-07T09:50:51.802Z,1016.74
2018-07-07T09:51:51.791Z,1016.74
2018-07-07T09:52:51.804Z,1016.74
2018-07-07T09:53:51.774Z,1016.69
2018-07-07T09:54:51.764Z,1016.70
2018-07-07T09:55:51.752Z,1016.72
2018-07-07T09:56:51.740Z,1016.70
2018-07-07T09:57:51.729Z,1016.73
2018-07-07T09:58:51.753Z,1016.71
2018-07-07T09:59:51.717Z,1016.73
2018-07-07T10:00:51.692Z,1016.70
2018-07-07T10:01:51.736Z,1016.73
2018-07-07T10:02:51.674Z,1016.73
2018-07-07T10:03:51.688Z,1016.74
2018-07-07T10:04:51.660Z,1016.72
2018-07-07T10:05:51.644Z,1016.74
2018-07-07T10:06:51.629Z,1016.74
2018-07-07T10:07:51.617Z,1016.68
2018-07-07T10:08:51.628Z,1016.69
2018-07-07T10:09:51.592Z,1016.70
2018-07-07T10:10:51.580Z,1016.66
2018-07-07T10:11:51.587Z,1016.68
2018-07-07T10:12:51.560Z,1016.70
2018-07-07T10:13:51.577Z,1016.69
2018-07-07T10:14:51.537Z,1016.68
2018-07-07T10:15:51.526Z,1016.67
2018-07-07T10:16:51.517Z,1016.61
2018-07-07T10:17:51.516Z,1016.64
2018-07-07T10:18:51.513Z,1016.70
2018-07-07T10:19:51.485Z,1016.68
2018-07-07T10:20:51.470Z,1016.68
2018-07-07T10:21:51.459Z,1016.66
2018-07-07T10:22:51.449Z,1016.65
2018-07-07T10:23:51.460Z,1016.61
2018-07-07T10:24:51.432Z,1016.57
2018-07-07T10:25:51.428Z,1016.56
2018-07-07T10:26:51.406Z,1016.53
2018-07-07T10:27:51.392Z,1016.56
2018-07-07T10:28:51.406Z,1016.54
2018-07-07T10:29:51.369Z,1016.58
2018-07-07T10:30:51.376Z,1016.58
2018-07-07T10:31:51.352Z,1016.54
2018-07-07T10:32:51.342Z,1016.59
2018-07-07T10:33:51.353Z,1016.60
2018-07-07T10:34:51.318Z,1016.55
2018-07-07T10:35:51.304Z,1016.59
2018-07-07T10:36:51.294Z,1016.63
2018-07-07T10:37:51.283Z,1016.64
2018-07-07T10:38:51.299Z,1016.65
2018-07-07T10:39:51.264Z,1016.61
2018-07-07T10:40:51.268Z,1016.64
2018-07-07T10:41:51.237Z,1016.60
2018-07-07T10:42:51.226Z,1016.64
2018-07-07T10:43:51.244Z,1016.61
2018-07-07T10:44:51.211Z,1016.58
2018-07-07T10:45:51.335Z,1016.61
2018-07-07T10:46:51.199Z,1016.60
2018-07-07T10:47:51.173Z,1016.57
2018-07-07T10:48:51.200Z,1016.55
2018-07-07T10:49:51.160Z,1016.54
2018-07-07T10:50:51.140Z,1016.65
2018-07-07T10:51:51.138Z,1016.62
2018-07-07T10:52:51.118Z,1016.56
2018-07-07T10:53:51.128Z,1016.61
2018-07-07T10:54:51.099Z,1016.55
2018-07-07T10:55:51.084Z,1016.61
2018-07-07T10:56:51.070Z,1016.57
2018-07-07T10:57:51.060Z,1016.52
2018-07-07T10:58:51.118Z,1016.52
2018-07-07T10:59:51.043Z,1016.53
2018-07-07T11:00:51.026Z,1016.48
2018-07-07T11:01:51.027Z,1016.52
2018-07-07T11:02:51.006Z,1016.54
2018-07-07T11:03:51.027Z,1016.53
2018-07-07T11:04:50.982Z,1016.55
2018-07-07T11:05:50.972Z,1016.53
2018-07-07T11:06:50.973Z,1016.47
2018-07-07T11:07:50.954Z,1016.47
2018-07-07T11:08:50.968Z,1016.47
2018-07-07T11:09:50.939Z,1016.50
2018-07-07T11:10:50.916Z,1016.45
2018-07-07T11:11:50.994Z,1016.45
2018-07-07T11:12:50.895Z,1016.37
2018-07-07T11:13:50.915Z,1016.36
2018-07-07T11:14:50.872Z,1016.40
2018-07-07T11:15:50.862Z,1016.53
2018-07-07T11:16:50.850Z,1016.50
2018-07-07T11:17:50.839Z,1016.49
2018-07-07T11:18:50.852Z,1016.44
2018-07-07T11:19:50.829Z,1016.45
2018-07-07T11:20:50.806Z,1016.45
2018-07-07T11:21:50.795Z,1016.45
2018-07-07T11:22:50.784Z,1016.42
2018-07-07T11:23:50.796Z,1016.45
2018-07-07T11:24:50.763Z,1016.63
2018-07-07T11:25:50.751Z,1016.47
2018-07-07T11:26:50.741Z,1016.50
2018-07-07T11:27:50.728Z,1016.51
2018-07-07T11:28:50.742Z,1016.51
2018-07-07T11:29:50.756Z,1016.46
2018-07-07T11:30:50.695Z,1016.50
2018-07-07T11:31:50.687Z,1016.44
2018-07-07T11:32:50.674Z,1016.41
2018-07-07T11:33:50.686Z,1016.34
2018-07-07T11:34:50.652Z,1016.42
2018-07-07T11:35:50.642Z,1016.45
2018-07-07T11:36:50.652Z,1016.44
2018-07-07T11:37:50.620Z,1016.40
2018-07-07T11:38:50.610Z,1016.39
2018-07-07T11:39:50.621Z,1016.38
2018-07-07T11:40:50.586Z,1016.42
2018-07-07T11:41:50.575Z,1016.43
2018-07-07T11:42:50.563Z,1016.49
2018-07-07T11:43:50.555Z,1016.44
2018-07-07T11:44:50.567Z,1016.43
2018-07-07T11:45:50.534Z,1016.45
2018-07-07T11:46:50.521Z,1016.43
2018-07-07T11:47:50.508Z,1016.45
2018-07-07T11:48:50.500Z,1016.51
2018-07-07T11:49:50.512Z,1016.44
2018-07-07T11:50:50.477Z,1016.43
2018-07-07T11:51:50.464Z,1016.46
2018-07-07T11:52:50.455Z,1016.48
2018-07-07T11:53:50.445Z,1016.52
2018-07-07T11:54:50.459Z,1016.57
2018-07-07T11:55:50.423Z,1016.50
2018-07-07T11:56:50.415Z,1016.49
2018-07-07T11:57:50.400Z,1016.49
2018-07-07T11:58:50.390Z,1016.52
2018-07-07T11:59:50.401Z,1016.51
2018-07-07T12:00:50.366Z,1016.60
2018-07-07T12:01:50.389Z,1016.55
2018-07-07T12:02:50.345Z,1016.48
2018-07-07T12:03:50.334Z,1016.45
2018-07-07T12:04:50.383Z,1016.51
2018-07-07T12:05:50.316Z,1016.42